sensor_id;sensor_type;location;lat;lon;timestamp;P1;durP1;ratioP1;P2;durP2;ratioP2
67896;SDS011;54698;48.428;9.964;2022-09-09T00:02:15;11.27;;;2.97;;
67896;SDS011;54698;48.428;9.964;2022-09-09T00:04:46;7.65;;;2.90;;
67896;SDS011;54698;48.428;9.964;2022-09-09T00:07:25;7.90;;;2.28;;
67896;SDS011;54698;48.428;9.964;2022-09-09T00:10:05;8.85;;;2.35;;
67896;SDS011;54698;48.428;9.964;2022-09-09T00:12:42;6.90;;;2.42;;
67896;SDS011;54698;48.428;9.964;2022-09-09T00:15:19;6.43;;;1.90;;
67896;SDS011;54698;48.428;9.964;2022-09-09T00:17:49;4.95;;;1.20;;
67896;SDS011;54698;48.428;9.964;2022-09-09T00:20:19;6.10;;;1.00;;
67896;SDS011;54698;48.428;9.964;2022-09-09T00:22:50;3.67;;;0.85;;
67896;SDS011;54698;48.428;9.964;2022-09-09T00:25:23;5.80;;;1.75;;
67896;SDS011;54698;48.428;9.964;2022-09-09T00:27:55;5.00;;;1.20;;
67896;SDS011;54698;48.428;9.964;2022-09-09T00:30:22;3.25;;;0.90;;
67896;SDS011;54698;48.428;9.964;2022-09-09T00:32:53;2.63;;;0.80;;
67896;SDS011;54698;48.428;9.964;2022-09-09T00:35:21;2.15;;;0.90;;
67896;SDS011;54698;48.428;9.964;2022-09-09T00:37:50;4.32;;;1.20;;
67896;SDS011;54698;48.428;9.964;2022-09-09T00:40:25;3.28;;;1.10;;
67896;SDS011;54698;48.428;9.964;2022-09-09T00:43:04;2.90;;;1.00;;
67896;SDS011;54698;48.428;9.964;2022-09-09T00:48:57;4.70;;;1.35;;
67896;SDS011;54698;48.428;9.964;2022-09-09T00:51:31;6.20;;;1.00;;
67896;SDS011;54698;48.428;9.964;2022-09-09T00:54:13;3.42;;;0.95;;
67896;SDS011;54698;48.428;9.964;2022-09-09T00:56:55;3.58;;;1.10;;
67896;SDS011;54698;48.428;9.964;2022-09-09T00:59:32;4.80;;;1.20;;
67896;SDS011;54698;48.428;9.964;2022-09-09T01:02:13;6.32;;;1.73;;
67896;SDS011;54698;48.428;9.964;2022-09-09T01:04:52;9.40;;;3.22;;
67896;SDS011;54698;48.428;9.964;2022-09-09T01:07:18;6.25;;;1.90;;
67896;SDS011;54698;48.428;9.964;2022-09-09T01:09:51;5.60;;;1.80;;
67896;SDS011;54698;48.428;9.964;2022-09-09T01:12:25;5.75;;;2.50;;
67896;SDS011;54698;48.428;9.964;2022-09-09T01:15:01;9.43;;;1.70;;
67896;SDS011;54698;48.428;9.964;2022-09-09T01:17:34;2.80;;;0.93;;
67896;SDS011;54698;48.428;9.964;2022-09-09T01:20:16;5.10;;;1.10;;
67896;SDS011;54698;48.428;9.964;2022-09-09T01:25:23;5.03;;;1.20;;
67896;SDS011;54698;48.428;9.964;2022-09-09T01:27:56;3.35;;;0.93;;
67896;SDS011;54698;48.428;9.964;2022-09-09T01:30:26;4.90;;;1.63;;
67896;SDS011;54698;48.428;9.964;2022-09-09T01:32:53;5.22;;;1.20;;
67896;SDS011;54698;48.428;9.964;2022-09-09T01:35:25;7.03;;;1.60;;
67896;SDS011;54698;48.428;9.964;2022-09-09T01:38:07;7.85;;;2.40;;
67896;SDS011;54698;48.428;9.964;2022-09-09T01:40:34;11.13;;;3.50;;
67896;SDS011;54698;48.428;9.964;2022-09-09T01:43:02;11.85;;;3.80;;
67896;SDS011;54698;48.428;9.964;2022-09-09T01:45:28;8.50;;;3.17;;
67896;SDS011;54698;48.428;9.964;2022-09-09T01:47:55;13.23;;;3.95;;
67896;SDS011;54698;48.428;9.964;2022-09-09T01:50:21;11.02;;;4.75;;
67896;SDS011;54698;48.428;9.964;2022-09-09T01:52:48;11.43;;;4.07;;
67896;SDS011;54698;48.428;9.964;2022-09-09T01:55:18;12.20;;;4.03;;
67896;SDS011;54698;48.428;9.964;2022-09-09T01:57:54;10.00;;;3.38;;
67896;SDS011;54698;48.428;9.964;2022-09-09T02:00:34;8.20;;;2.47;;
67896;SDS011;54698;48.428;9.964;2022-09-09T02:03:08;11.52;;;2.83;;
67896;SDS011;54698;48.428;9.964;2022-09-09T02:05:46;9.73;;;1.90;;
67896;SDS011;54698;48.428;9.964;2022-09-09T02:08:20;5.93;;;1.90;;
67896;SDS011;54698;48.428;9.964;2022-09-09T02:10:50;3.75;;;1.30;;
67896;SDS011;54698;48.428;9.964;2022-09-09T02:13:24;6.13;;;2.10;;
67896;SDS011;54698;48.428;9.964;2022-09-09T02:15:52;7.95;;;3.05;;
67896;SDS011;54698;48.428;9.964;2022-09-09T02:18:21;8.57;;;2.92;;
67896;SDS011;54698;48.428;9.964;2022-09-09T02:20:52;8.93;;;2.67;;
67896;SDS011;54698;48.428;9.964;2022-09-09T02:23:19;9.38;;;2.80;;
67896;SDS011;54698;48.428;9.964;2022-09-09T02:25:45;9.75;;;2.88;;
67896;SDS011;54698;48.428;9.964;2022-09-09T02:28:13;8.13;;;2.72;;
67896;SDS011;54698;48.428;9.964;2022-09-09T02:30:43;7.72;;;2.70;;
67896;SDS011;54698;48.428;9.964;2022-09-09T02:33:11;9.35;;;3.15;;
67896;SDS011;54698;48.428;9.964;2022-09-09T02:35:39;7.65;;;3.33;;
67896;SDS011;54698;48.428;9.964;2022-09-09T02:38:08;8.73;;;2.40;;
67896;SDS011;54698;48.428;9.964;2022-09-09T02:40:38;11.43;;;2.28;;
67896;SDS011;54698;48.428;9.964;2022-09-09T02:43:04;5.85;;;2.55;;
67896;SDS011;54698;48.428;9.964;2022-09-09T02:45:31;6.78;;;2.45;;
67896;SDS011;54698;48.428;9.964;2022-09-09T02:48:08;9.27;;;2.07;;
67896;SDS011;54698;48.428;9.964;2022-09-09T02:50:40;6.37;;;2.20;;
67896;SDS011;54698;48.428;9.964;2022-09-09T02:53:17;7.37;;;2.33;;
67896;SDS011;54698;48.428;9.964;2022-09-09T02:55:46;6.55;;;1.90;;
67896;SDS011;54698;48.428;9.964;2022-09-09T02:58:17;6.73;;;2.10;;
67896;SDS011;54698;48.428;9.964;2022-09-09T03:00:45;5.97;;;2.40;;
67896;SDS011;54698;48.428;9.964;2022-09-09T03:03:14;4.57;;;1.60;;
67896;SDS011;54698;48.428;9.964;2022-09-09T03:05:42;5.90;;;1.83;;
67896;SDS011;54698;48.428;9.964;2022-09-09T03:08:08;6.07;;;1.90;;
67896;SDS011;54698;48.428;9.964;2022-09-09T03:10:34;4.18;;;1.75;;
67896;SDS011;54698;48.428;9.964;2022-09-09T03:13:00;7.80;;;2.00;;
67896;SDS011;54698;48.428;9.964;2022-09-09T03:15:26;7.30;;;2.58;;
67896;SDS011;54698;48.428;9.964;2022-09-09T03:17:52;4.87;;;1.83;;
67896;SDS011;54698;48.428;9.964;2022-09-09T03:20:20;7.40;;;2.33;;
67896;SDS011;54698;48.428;9.964;2022-09-09T03:22:46;5.27;;;1.57;;
67896;SDS011;54698;48.428;9.964;2022-09-09T03:25:11;4.25;;;1.52;;
67896;SDS011;54698;48.428;9.964;2022-09-09T03:27:37;5.60;;;1.38;;
67896;SDS011;54698;48.428;9.964;2022-09-09T03:30:03;3.88;;;1.20;;
67896;SDS011;54698;48.428;9.964;2022-09-09T03:32:30;8.02;;;2.10;;
67896;SDS011;54698;48.428;9.964;2022-09-09T03:34:56;9.52;;;3.17;;
67896;SDS011;54698;48.428;9.964;2022-09-09T03:37:24;4.40;;;1.38;;
67896;SDS011;54698;48.428;9.964;2022-09-09T03:39:49;5.78;;;1.95;;
67896;SDS011;54698;48.428;9.964;2022-09-09T03:42:15;7.00;;;1.70;;
67896;SDS011;54698;48.428;9.964;2022-09-09T03:44:41;3.40;;;1.25;;
67896;SDS011;54698;48.428;9.964;2022-09-09T03:47:07;6.25;;;1.92;;
67896;SDS011;54698;48.428;9.964;2022-09-09T03:49:33;2.55;;;0.90;;
67896;SDS011;54698;48.428;9.964;2022-09-09T03:51:59;5.03;;;1.67;;
67896;SDS011;54698;48.428;9.964;2022-09-09T03:54:26;4.88;;;1.08;;
67896;SDS011;54698;48.428;9.964;2022-09-09T03:56:52;7.30;;;2.28;;
67896;SDS011;54698;48.428;9.964;2022-09-09T03:59:18;3.40;;;1.10;;
67896;SDS011;54698;48.428;9.964;2022-09-09T04:01:44;3.97;;;0.90;;
67896;SDS011;54698;48.428;9.964;2022-09-09T04:04:09;4.70;;;1.17;;
67896;SDS011;54698;48.428;9.964;2022-09-09T04:06:35;7.22;;;1.50;;
67896;SDS011;54698;48.428;9.964;2022-09-09T04:09:01;5.70;;;1.98;;
67896;SDS011;54698;48.428;9.964;2022-09-09T04:11:29;3.95;;;1.42;;
67896;SDS011;54698;48.428;9.964;2022-09-09T04:13:55;4.72;;;1.70;;
67896;SDS011;54698;48.428;9.964;2022-09-09T04:16:20;7.22;;;2.15;;
67896;SDS011;54698;48.428;9.964;2022-09-09T04:18:46;9.25;;;2.30;;
67896;SDS011;54698;48.428;9.964;2022-09-09T04:21:12;4.28;;;1.77;;
67896;SDS011;54698;48.428;9.964;2022-09-09T04:23:38;7.07;;;1.92;;
67896;SDS011;54698;48.428;9.964;2022-09-09T04:26:04;6.15;;;2.40;;
67896;SDS011;54698;48.428;9.964;2022-09-09T04:28:33;5.82;;;2.53;;
67896;SDS011;54698;48.428;9.964;2022-09-09T04:31:04;9.02;;;3.17;;
67896;SDS011;54698;48.428;9.964;2022-09-09T04:33:31;6.53;;;2.15;;
67896;SDS011;54698;48.428;9.964;2022-09-09T04:35:57;7.05;;;2.45;;
67896;SDS011;54698;48.428;9.964;2022-09-09T04:38:23;6.87;;;2.93;;
67896;SDS011;54698;48.428;9.964;2022-09-09T04:40:50;6.80;;;2.53;;
67896;SDS011;54698;48.428;9.964;2022-09-09T04:43:17;7.07;;;2.78;;
67896;SDS011;54698;48.428;9.964;2022-09-09T04:45:46;6.72;;;2.70;;
67896;SDS011;54698;48.428;9.964;2022-09-09T04:48:13;7.15;;;2.30;;
67896;SDS011;54698;48.428;9.964;2022-09-09T04:50:39;7.72;;;2.67;;
67896;SDS011;54698;48.428;9.964;2022-09-09T04:53:05;7.00;;;2.50;;
67896;SDS011;54698;48.428;9.964;2022-09-09T04:55:31;7.82;;;2.08;;
67896;SDS011;54698;48.428;9.964;2022-09-09T04:57:58;10.40;;;2.13;;
67896;SDS011;54698;48.428;9.964;2022-09-09T05:00:29;4.25;;;1.85;;
67896;SDS011;54698;48.428;9.964;2022-09-09T05:02:56;5.70;;;1.58;;
67896;SDS011;54698;48.428;9.964;2022-09-09T05:05:21;5.50;;;2.40;;
67896;SDS011;54698;48.428;9.964;2022-09-09T05:07:48;7.97;;;2.08;;
67896;SDS011;54698;48.428;9.964;2022-09-09T05:10:14;4.40;;;1.63;;
67896;SDS011;54698;48.428;9.964;2022-09-09T05:12:40;5.68;;;1.70;;
67896;SDS011;54698;48.428;9.964;2022-09-09T05:15:07;4.28;;;1.50;;
67896;SDS011;54698;48.428;9.964;2022-09-09T05:17:34;3.58;;;1.40;;
67896;SDS011;54698;48.428;9.964;2022-09-09T05:20:01;8.30;;;2.00;;
67896;SDS011;54698;48.428;9.964;2022-09-09T05:22:28;4.97;;;1.92;;
67896;SDS011;54698;48.428;9.964;2022-09-09T05:24:53;4.97;;;1.70;;
67896;SDS011;54698;48.428;9.964;2022-09-09T05:27:19;5.40;;;1.70;;
67896;SDS011;54698;48.428;9.964;2022-09-09T05:29:45;5.50;;;2.05;;
67896;SDS011;54698;48.428;9.964;2022-09-09T05:32:11;9.43;;;1.80;;
67896;SDS011;54698;48.428;9.964;2022-09-09T05:34:37;7.50;;;1.50;;
67896;SDS011;54698;48.428;9.964;2022-09-09T05:37:04;7.35;;;2.70;;
67896;SDS011;54698;48.428;9.964;2022-09-09T05:39:30;5.18;;;2.30;;
67896;SDS011;54698;48.428;9.964;2022-09-09T05:41:56;6.47;;;1.45;;
67896;SDS011;54698;48.428;9.964;2022-09-09T05:44:21;5.22;;;1.42;;
67896;SDS011;54698;48.428;9.964;2022-09-09T05:46:47;3.97;;;1.58;;
67896;SDS011;54698;48.428;9.964;2022-09-09T05:49:13;4.78;;;1.90;;
67896;SDS011;54698;48.428;9.964;2022-09-09T05:51:39;5.05;;;1.65;;
67896;SDS011;54698;48.428;9.964;2022-09-09T05:54:06;6.97;;;1.63;;
67896;SDS011;54698;48.428;9.964;2022-09-09T05:56:32;4.93;;;1.30;;
67896;SDS011;54698;48.428;9.964;2022-09-09T05:58:58;6.22;;;1.80;;
67896;SDS011;54698;48.428;9.964;2022-09-09T06:01:24;4.80;;;1.80;;
67896;SDS011;54698;48.428;9.964;2022-09-09T06:03:52;7.78;;;2.58;;
67896;SDS011;54698;48.428;9.964;2022-09-09T06:06:18;5.80;;;2.20;;
67896;SDS011;54698;48.428;9.964;2022-09-09T06:08:46;4.93;;;1.60;;
67896;SDS011;54698;48.428;9.964;2022-09-09T06:11:15;9.18;;;2.92;;
67896;SDS011;54698;48.428;9.964;2022-09-09T06:13:42;4.63;;;1.60;;
67896;SDS011;54698;48.428;9.964;2022-09-09T06:16:09;5.07;;;1.58;;
67896;SDS011;54698;48.428;9.964;2022-09-09T06:18:35;6.88;;;1.77;;
67896;SDS011;54698;48.428;9.964;2022-09-09T06:21:02;7.95;;;1.90;;
67896;SDS011;54698;48.428;9.964;2022-09-09T06:23:33;5.32;;;2.05;;
67896;SDS011;54698;48.428;9.964;2022-09-09T06:26:03;6.63;;;1.80;;
67896;SDS011;54698;48.428;9.964;2022-09-09T06:28:33;5.50;;;1.33;;
67896;SDS011;54698;48.428;9.964;2022-09-09T06:31:00;3.30;;;1.40;;
67896;SDS011;54698;48.428;9.964;2022-09-09T06:33:30;3.25;;;1.23;;
67896;SDS011;54698;48.428;9.964;2022-09-09T06:35:57;4.20;;;1.35;;
67896;SDS011;54698;48.428;9.964;2022-09-09T06:38:23;9.82;;;1.58;;
67896;SDS011;54698;48.428;9.964;2022-09-09T06:40:52;3.78;;;1.58;;
67896;SDS011;54698;48.428;9.964;2022-09-09T06:43:18;3.17;;;1.38;;
67896;SDS011;54698;48.428;9.964;2022-09-09T06:45:53;4.80;;;1.30;;
67896;SDS011;54698;48.428;9.964;2022-09-09T06:48:20;5.55;;;2.10;;
67896;SDS011;54698;48.428;9.964;2022-09-09T06:50:46;9.82;;;2.75;;
67896;SDS011;54698;48.428;9.964;2022-09-09T06:53:12;6.60;;;1.38;;
67896;SDS011;54698;48.428;9.964;2022-09-09T06:55:42;6.35;;;1.50;;
67896;SDS011;54698;48.428;9.964;2022-09-09T06:58:07;4.65;;;1.27;;
67896;SDS011;54698;48.428;9.964;2022-09-09T07:00:33;6.75;;;1.45;;
67896;SDS011;54698;48.428;9.964;2022-09-09T07:03:00;7.28;;;1.90;;
67896;SDS011;54698;48.428;9.964;2022-09-09T07:05:26;3.72;;;1.65;;
67896;SDS011;54698;48.428;9.964;2022-09-09T07:07:52;6.20;;;1.40;;
67896;SDS011;54698;48.428;9.964;2022-09-09T07:10:18;4.63;;;1.40;;
67896;SDS011;54698;48.428;9.964;2022-09-09T07:12:43;6.10;;;1.50;;
67896;SDS011;54698;48.428;9.964;2022-09-09T07:15:09;3.92;;;1.55;;
67896;SDS011;54698;48.428;9.964;2022-09-09T07:17:35;5.60;;;1.38;;
67896;SDS011;54698;48.428;9.964;2022-09-09T07:20:03;6.50;;;1.48;;
67896;SDS011;54698;48.428;9.964;2022-09-09T07:22:30;4.40;;;1.20;;
67896;SDS011;54698;48.428;9.964;2022-09-09T07:24:55;4.50;;;1.52;;
67896;SDS011;54698;48.428;9.964;2022-09-09T07:27:21;4.03;;;1.15;;
67896;SDS011;54698;48.428;9.964;2022-09-09T07:29:47;2.88;;;1.15;;
67896;SDS011;54698;48.428;9.964;2022-09-09T07:32:13;4.18;;;1.10;;
67896;SDS011;54698;48.428;9.964;2022-09-09T07:34:39;5.55;;;1.80;;
67896;SDS011;54698;48.428;9.964;2022-09-09T07:37:06;7.57;;;1.98;;
67896;SDS011;54698;48.428;9.964;2022-09-09T07:39:32;4.40;;;1.50;;
67896;SDS011;54698;48.428;9.964;2022-09-09T07:41:57;4.55;;;1.48;;
67896;SDS011;54698;48.428;9.964;2022-09-09T07:44:24;8.25;;;1.40;;
67896;SDS011;54698;48.428;9.964;2022-09-09T07:46:50;6.40;;;1.42;;
67896;SDS011;54698;48.428;9.964;2022-09-09T07:49:16;3.63;;;1.20;;
67896;SDS011;54698;48.428;9.964;2022-09-09T07:51:42;4.82;;;1.35;;
67896;SDS011;54698;48.428;9.964;2022-09-09T07:54:12;6.60;;;1.60;;
67896;SDS011;54698;48.428;9.964;2022-09-09T07:56:40;6.47;;;2.10;;
67896;SDS011;54698;48.428;9.964;2022-09-09T07:59:07;5.00;;;1.55;;
67896;SDS011;54698;48.428;9.964;2022-09-09T08:01:34;5.97;;;1.30;;
67896;SDS011;54698;48.428;9.964;2022-09-09T08:04:02;8.05;;;2.55;;
67896;SDS011;54698;48.428;9.964;2022-09-09T08:06:31;4.47;;;1.70;;
67896;SDS011;54698;48.428;9.964;2022-09-09T08:09:01;5.50;;;1.42;;
67896;SDS011;54698;48.428;9.964;2022-09-09T08:11:28;4.47;;;1.83;;
67896;SDS011;54698;48.428;9.964;2022-09-09T08:13:55;7.05;;;2.15;;
67896;SDS011;54698;48.428;9.964;2022-09-09T08:16:22;7.93;;;1.70;;
67896;SDS011;54698;48.428;9.964;2022-09-09T08:18:50;9.90;;;2.33;;
67896;SDS011;54698;48.428;9.964;2022-09-09T08:21:17;4.40;;;1.45;;
67896;SDS011;54698;48.428;9.964;2022-09-09T08:23:46;6.50;;;1.58;;
67896;SDS011;54698;48.428;9.964;2022-09-09T08:26:13;7.07;;;1.80;;
67896;SDS011;54698;48.428;9.964;2022-09-09T08:28:42;6.55;;;2.75;;
67896;SDS011;54698;48.428;9.964;2022-09-09T08:31:11;3.95;;;1.73;;
67896;SDS011;54698;48.428;9.964;2022-09-09T08:33:38;5.47;;;1.70;;
67896;SDS011;54698;48.428;9.964;2022-09-09T08:36:05;7.10;;;1.80;;
67896;SDS011;54698;48.428;9.964;2022-09-09T08:38:34;5.60;;;1.90;;
67896;SDS011;54698;48.428;9.964;2022-09-09T08:41:04;5.03;;;1.80;;
67896;SDS011;54698;48.428;9.964;2022-09-09T08:44:00;4.90;;;2.03;;
67896;SDS011;54698;48.428;9.964;2022-09-09T08:46:32;5.10;;;1.33;;
67896;SDS011;54698;48.428;9.964;2022-09-09T08:49:13;5.80;;;2.25;;
67896;SDS011;54698;48.428;9.964;2022-09-09T08:52:03;4.55;;;1.60;;
67896;SDS011;54698;48.428;9.964;2022-09-09T08:54:37;7.25;;;1.85;;
67896;SDS011;54698;48.428;9.964;2022-09-09T08:57:03;5.90;;;1.73;;
67896;SDS011;54698;48.428;9.964;2022-09-09T08:59:38;4.82;;;1.30;;
67896;SDS011;54698;48.428;9.964;2022-09-09T09:02:06;6.43;;;1.50;;
67896;SDS011;54698;48.428;9.964;2022-09-09T09:04:46;3.97;;;1.60;;
67896;SDS011;54698;48.428;9.964;2022-09-09T09:07:32;6.15;;;1.48;;
67896;SDS011;54698;48.428;9.964;2022-09-09T09:10:18;4.60;;;1.25;;
67896;SDS011;54698;48.428;9.964;2022-09-09T09:13:02;5.70;;;2.03;;
67896;SDS011;54698;48.428;9.964;2022-09-09T09:15:31;8.25;;;1.52;;
67896;SDS011;54698;48.428;9.964;2022-09-09T09:18:02;3.22;;;1.05;;
67896;SDS011;54698;48.428;9.964;2022-09-09T09:20:31;4.20;;;1.00;;
67896;SDS011;54698;48.428;9.964;2022-09-09T09:23:09;1.73;;;0.90;;
67896;SDS011;54698;48.428;9.964;2022-09-09T09:25:44;2.88;;;1.23;;
67896;SDS011;54698;48.428;9.964;2022-09-09T09:28:10;3.28;;;1.30;;
67896;SDS011;54698;48.428;9.964;2022-09-09T09:30:44;3.20;;;0.90;;
67896;SDS011;54698;48.428;9.964;2022-09-09T09:33:17;5.18;;;1.15;;
67896;SDS011;54698;48.428;9.964;2022-09-09T09:35:48;5.70;;;1.30;;
67896;SDS011;54698;48.428;9.964;2022-09-09T09:38:15;2.28;;;0.80;;
67896;SDS011;54698;48.428;9.964;2022-09-09T09:40:50;4.18;;;0.80;;
67896;SDS011;54698;48.428;9.964;2022-09-09T09:43:19;3.88;;;1.20;;
67896;SDS011;54698;48.428;9.964;2022-09-09T09:45:51;2.92;;;0.90;;
67896;SDS011;54698;48.428;9.964;2022-09-09T09:48:16;3.53;;;0.80;;
67896;SDS011;54698;48.428;9.964;2022-09-09T09:50:46;3.45;;;1.00;;
67896;SDS011;54698;48.428;9.964;2022-09-09T09:53:22;11.60;;;2.80;;
67896;SDS011;54698;48.428;9.964;2022-09-09T09:55:53;4.00;;;1.20;;
67896;SDS011;54698;48.428;9.964;2022-09-09T09:58:22;5.85;;;1.20;;
67896;SDS011;54698;48.428;9.964;2022-09-09T10:00:52;5.30;;;1.20;;
67896;SDS011;54698;48.428;9.964;2022-09-09T10:03:20;4.57;;;0.90;;
67896;SDS011;54698;48.428;9.964;2022-09-09T10:05:49;4.22;;;1.30;;
67896;SDS011;54698;48.428;9.964;2022-09-09T10:08:16;4.18;;;1.13;;
67896;SDS011;54698;48.428;9.964;2022-09-09T10:10:46;2.15;;;0.82;;
67896;SDS011;54698;48.428;9.964;2022-09-09T10:13:24;3.15;;;0.98;;
67896;SDS011;54698;48.428;9.964;2022-09-09T10:15:59;3.88;;;1.30;;
67896;SDS011;54698;48.428;9.964;2022-09-09T10:18:41;1.40;;;0.75;;
67896;SDS011;54698;48.428;9.964;2022-09-09T10:21:23;5.25;;;1.08;;
67896;SDS011;54698;48.428;9.964;2022-09-09T10:24:29;2.88;;;0.70;;
67896;SDS011;54698;48.428;9.964;2022-09-09T10:27:11;3.53;;;0.90;;
67896;SDS011;54698;48.428;9.964;2022-09-09T10:29:48;4.57;;;0.85;;
67896;SDS011;54698;48.428;9.964;2022-09-09T10:32:46;3.75;;;0.80;;
67896;SDS011;54698;48.428;9.964;2022-09-09T10:35:19;7.47;;;1.63;;
67896;SDS011;54698;48.428;9.964;2022-09-09T10:37:57;2.45;;;0.75;;
67896;SDS011;54698;48.428;9.964;2022-09-09T10:40:39;5.35;;;0.95;;
67896;SDS011;54698;48.428;9.964;2022-09-09T10:43:12;3.25;;;0.77;;
67896;SDS011;54698;48.428;9.964;2022-09-09T10:45:50;3.63;;;0.90;;
67896;SDS011;54698;48.428;9.964;2022-09-09T10:48:30;3.85;;;0.80;;
67896;SDS011;54698;48.428;9.964;2022-09-09T10:51:06;5.32;;;1.08;;
67896;SDS011;54698;48.428;9.964;2022-09-09T10:53:47;5.50;;;1.48;;
67896;SDS011;54698;48.428;9.964;2022-09-09T10:56:26;5.53;;;0.90;;
67896;SDS011;54698;48.428;9.964;2022-09-09T10:58:53;3.45;;;0.60;;
67896;SDS011;54698;48.428;9.964;2022-09-09T11:01:25;5.78;;;1.60;;
67896;SDS011;54698;48.428;9.964;2022-09-09T11:03:57;4.88;;;0.70;;
67896;SDS011;54698;48.428;9.964;2022-09-09T11:06:31;1.42;;;0.57;;
67896;SDS011;54698;48.428;9.964;2022-09-09T11:11:29;1.73;;;0.70;;
67896;SDS011;54698;48.428;9.964;2022-09-09T11:14:01;3.65;;;0.90;;
67896;SDS011;54698;48.428;9.964;2022-09-09T11:16:36;3.63;;;0.70;;
67896;SDS011;54698;48.428;9.964;2022-09-09T11:21:42;2.00;;;0.80;;
67896;SDS011;54698;48.428;9.964;2022-09-09T11:24:13;6.90;;;1.17;;
67896;SDS011;54698;48.428;9.964;2022-09-09T11:26:44;3.05;;;0.70;;
67896;SDS011;54698;48.428;9.964;2022-09-09T11:29:22;1.95;;;0.60;;
67896;SDS011;54698;48.428;9.964;2022-09-09T11:32:17;5.28;;;1.00;;
67896;SDS011;54698;48.428;9.964;2022-09-09T11:35:01;3.35;;;0.80;;
67896;SDS011;54698;48.428;9.964;2022-09-09T11:37:49;4.75;;;1.13;;
67896;SDS011;54698;48.428;9.964;2022-09-09T11:40:46;5.30;;;0.90;;
67896;SDS011;54698;48.428;9.964;2022-09-09T11:43:21;5.47;;;1.23;;
67896;SDS011;54698;48.428;9.964;2022-09-09T11:45:53;3.65;;;0.95;;
67896;SDS011;54698;48.428;9.964;2022-09-09T11:48:25;4.00;;;0.70;;
67896;SDS011;54698;48.428;9.964;2022-09-09T11:50:58;1.60;;;0.80;;
67896;SDS011;54698;48.428;9.964;2022-09-09T11:53:28;4.17;;;1.17;;
67896;SDS011;54698;48.428;9.964;2022-09-09T11:56:04;4.78;;;0.82;;
67896;SDS011;54698;48.428;9.964;2022-09-09T11:58:36;3.35;;;0.70;;
67896;SDS011;54698;48.428;9.964;2022-09-09T12:04:13;2.55;;;0.80;;
67896;SDS011;54698;48.428;9.964;2022-09-09T12:06:54;1.45;;;0.68;;
67896;SDS011;54698;48.428;9.964;2022-09-09T12:09:26;6.03;;;0.70;;
67896;SDS011;54698;48.428;9.964;2022-09-09T12:12:25;2.70;;;0.60;;
67896;SDS011;54698;48.428;9.964;2022-09-09T12:14:55;3.42;;;0.70;;
67896;SDS011;54698;48.428;9.964;2022-09-09T12:17:43;2.08;;;0.70;;
67896;SDS011;54698;48.428;9.964;2022-09-09T12:20:12;1.65;;;0.45;;
67896;SDS011;54698;48.428;9.964;2022-09-09T12:25:47;4.43;;;0.70;;
67896;SDS011;54698;48.428;9.964;2022-09-09T12:28:24;3.20;;;0.70;;
67896;SDS011;54698;48.428;9.964;2022-09-09T12:31:03;3.40;;;0.75;;
67896;SDS011;54698;48.428;9.964;2022-09-09T12:33:35;6.50;;;0.60;;
67896;SDS011;54698;48.428;9.964;2022-09-09T12:36:04;2.25;;;0.52;;
67896;SDS011;54698;48.428;9.964;2022-09-09T12:38:37;3.53;;;0.50;;
67896;SDS011;54698;48.428;9.964;2022-09-09T12:41:05;1.33;;;0.57;;
67896;SDS011;54698;48.428;9.964;2022-09-09T12:43:31;4.07;;;0.82;;
67896;SDS011;54698;48.428;9.964;2022-09-09T12:45:58;2.28;;;0.50;;
67896;SDS011;54698;48.428;9.964;2022-09-09T12:48:28;1.65;;;0.57;;
67896;SDS011;54698;48.428;9.964;2022-09-09T12:50:59;2.38;;;0.70;;
67896;SDS011;54698;48.428;9.964;2022-09-09T12:53:26;2.70;;;0.75;;
67896;SDS011;54698;48.428;9.964;2022-09-09T12:55:57;6.68;;;0.90;;
67896;SDS011;54698;48.428;9.964;2022-09-09T12:58:25;5.47;;;0.85;;
67896;SDS011;54698;48.428;9.964;2022-09-09T13:00:53;2.45;;;0.63;;
67896;SDS011;54698;48.428;9.964;2022-09-09T13:03:21;3.55;;;0.70;;
67896;SDS011;54698;48.428;9.964;2022-09-09T13:05:48;2.65;;;0.65;;
67896;SDS011;54698;48.428;9.964;2022-09-09T13:08:15;3.40;;;0.93;;
67896;SDS011;54698;48.428;9.964;2022-09-09T13:10:43;3.00;;;0.70;;
67896;SDS011;54698;48.428;9.964;2022-09-09T13:13:14;4.05;;;0.93;;
67896;SDS011;54698;48.428;9.964;2022-09-09T13:15:48;2.45;;;1.10;;
67896;SDS011;54698;48.428;9.964;2022-09-09T13:18:16;1.73;;;0.65;;
67896;SDS011;54698;48.428;9.964;2022-09-09T13:20:47;2.28;;;0.60;;
67896;SDS011;54698;48.428;9.964;2022-09-09T13:23:14;2.65;;;0.68;;
67896;SDS011;54698;48.428;9.964;2022-09-09T13:25:42;6.65;;;0.80;;
67896;SDS011;54698;48.428;9.964;2022-09-09T13:28:21;3.08;;;1.40;;
67896;SDS011;54698;48.428;9.964;2022-09-09T13:30:56;5.40;;;1.10;;
67896;SDS011;54698;48.428;9.964;2022-09-09T13:33:29;2.65;;;0.60;;
67896;SDS011;54698;48.428;9.964;2022-09-09T13:35:57;2.00;;;0.60;;
67896;SDS011;54698;48.428;9.964;2022-09-09T13:38:26;1.40;;;0.70;;
67896;SDS011;54698;48.428;9.964;2022-09-09T13:40:55;2.60;;;0.70;;
67896;SDS011;54698;48.428;9.964;2022-09-09T13:43:24;5.28;;;0.70;;
67896;SDS011;54698;48.428;9.964;2022-09-09T13:45:52;3.80;;;0.65;;
67896;SDS011;54698;48.428;9.964;2022-09-09T13:48:23;1.75;;;0.85;;
67896;SDS011;54698;48.428;9.964;2022-09-09T13:50:53;2.00;;;0.50;;
67896;SDS011;54698;48.428;9.964;2022-09-09T13:53:21;1.75;;;0.68;;
67896;SDS011;54698;48.428;9.964;2022-09-09T13:55:47;3.88;;;1.00;;
67896;SDS011;54698;48.428;9.964;2022-09-09T13:58:14;4.63;;;1.83;;
67896;SDS011;54698;48.428;9.964;2022-09-09T14:00:43;3.80;;;0.55;;
67896;SDS011;54698;48.428;9.964;2022-09-09T14:03:09;3.15;;;0.68;;
67896;SDS011;54698;48.428;9.964;2022-09-09T14:05:35;1.60;;;0.70;;
67896;SDS011;54698;48.428;9.964;2022-09-09T14:08:02;2.63;;;0.60;;
67896;SDS011;54698;48.428;9.964;2022-09-09T14:10:30;1.42;;;0.40;;
67896;SDS011;54698;48.428;9.964;2022-09-09T14:12:56;6.15;;;0.60;;
67896;SDS011;54698;48.428;9.964;2022-09-09T14:15:22;1.52;;;0.52;;
67896;SDS011;54698;48.428;9.964;2022-09-09T14:17:49;3.60;;;0.63;;
67896;SDS011;54698;48.428;9.964;2022-09-09T14:20:15;3.35;;;0.93;;
67896;SDS011;54698;48.428;9.964;2022-09-09T14:22:41;3.10;;;0.90;;
67896;SDS011;54698;48.428;9.964;2022-09-09T14:25:07;2.13;;;0.60;;
67896;SDS011;54698;48.428;9.964;2022-09-09T14:27:33;3.28;;;0.60;;
67896;SDS011;54698;48.428;9.964;2022-09-09T14:29:59;4.40;;;1.33;;
67896;SDS011;54698;48.428;9.964;2022-09-09T14:32:25;4.85;;;0.77;;
67896;SDS011;54698;48.428;9.964;2022-09-09T14:34:52;4.13;;;1.23;;
67896;SDS011;54698;48.428;9.964;2022-09-09T14:37:18;0.80;;;0.45;;
67896;SDS011;54698;48.428;9.964;2022-09-09T14:39:44;1.35;;;0.68;;
67896;SDS011;54698;48.428;9.964;2022-09-09T14:42:10;1.15;;;0.43;;
67896;SDS011;54698;48.428;9.964;2022-09-09T14:44:36;2.75;;;0.47;;
67896;SDS011;54698;48.428;9.964;2022-09-09T14:47:02;2.70;;;0.70;;
67896;SDS011;54698;48.428;9.964;2022-09-09T14:49:28;2.20;;;0.60;;
67896;SDS011;54698;48.428;9.964;2022-09-09T14:51:55;3.92;;;0.60;;
67896;SDS011;54698;48.428;9.964;2022-09-09T14:54:21;2.75;;;0.70;;
67896;SDS011;54698;48.428;9.964;2022-09-09T14:56:46;5.55;;;0.80;;
67896;SDS011;54698;48.428;9.964;2022-09-09T14:59:12;2.00;;;0.50;;
67896;SDS011;54698;48.428;9.964;2022-09-09T15:01:38;3.47;;;0.75;;
67896;SDS011;54698;48.428;9.964;2022-09-09T15:04:04;3.15;;;0.68;;
67896;SDS011;54698;48.428;9.964;2022-09-09T15:06:32;3.60;;;0.80;;
67896;SDS011;54698;48.428;9.964;2022-09-09T15:09:01;4.78;;;0.60;;
67896;SDS011;54698;48.428;9.964;2022-09-09T15:11:28;1.85;;;0.65;;
67896;SDS011;54698;48.428;9.964;2022-09-09T15:13:58;2.67;;;0.60;;
67896;SDS011;54698;48.428;9.964;2022-09-09T15:16:24;2.50;;;0.40;;
67896;SDS011;54698;48.428;9.964;2022-09-09T15:18:52;2.15;;;0.70;;
67896;SDS011;54698;48.428;9.964;2022-09-09T15:21:21;4.10;;;1.55;;
67896;SDS011;54698;48.428;9.964;2022-09-09T15:23:49;1.88;;;0.50;;